Time;durP1;ratioP1;P1;durP2;ratioP2;P2;SDS_P1;SDS_P2;PMS_P1;PMS_P2;Temp;Humidity;BMP_temperature;BMP_pressure;BME280_temperature;BME280_humidity;BME280_pressure;Samples;Min_cycle;Max_cycle;Signal;HPM_P1;HPM_P2
2020/12/01 00:02:14;;;;;;;0.60;0.60;;;13.30;67.60;;;;;;5048174;28;20026;-79
2020/12/01 00:04:44;;;;;;;0.60;0.50;;;13.30;67.60;;;;;;5065552;28;20095;-77
2020/12/01 00:07:13;;;;;;;0.98;0.77;;;13.40;67.60;;;;;;5049839;28;20108;-77
2020/12/01 00:09:38;;;;;;;0.75;0.68;;;13.40;67.60;;;;;;5051197;28;20106;-79
2020/12/01 00:12:09;;;;;;;0.82;0.70;;;13.40;67.60;;;;;;5053645;28;20458;-77
2020/12/01 00:14:40;;;;;;;0.63;0.63;;;13.30;67.60;;;;;;5050737;28;20059;-77
2020/12/01 00:17:08;;;;;;;0.57;0.50;;;13.30;67.60;;;;;;5045237;28;20026;-77
2020/12/01 00:19:38;;;;;;;;;;;13.40;67.60;;;;;;5045607;28;20094;-77
2020/12/01 00:22:18;;;;;;;0.55;0.55;;;13.40;67.60;;;;;;5050243;28;19916;-77
2020/12/01 00:24:52;;;;;;;1.10;0.80;;;13.30;67.70;;;;;;5049407;28;20475;-77
2020/12/01 00:27:22;;;;;;;0.98;0.82;;;13.30;67.70;;;;;;5047774;28;20438;-78
2020/12/01 00:30:07;;;;;;;1.08;0.80;;;13.30;67.60;;;;;;5054566;28;20033;-76
2020/12/01 00:32:45;;;;;;;0.85;0.68;;;13.30;67.60;;;;;;5067434;28;20033;-77
2020/12/01 00:35:27;;;;;;;1.48;0.90;;;13.40;67.60;;;;;;5053748;28;20028;-77
2020/12/01 00:38:03;;;;;;;0.80;0.70;;;13.30;67.60;;;;;;5070225;28;20029;-77
2020/12/01 00:40:34;;;;;;;0.65;0.57;;;13.40;67.60;;;;;;5045106;28;20108;-77
2020/12/01 00:43:17;;;;;;;0.45;0.45;;;13.30;67.60;;;;;;5052684;28;20421;-77
2020/12/01 00:45:47;;;;;;;0.77;0.70;;;13.30;67.70;;;;;;5048881;28;20467;-77
2020/12/01 00:48:17;;;;;;;0.80;0.73;;;13.30;67.70;;;;;;5052276;28;20112;-77
2020/12/01 00:50:48;;;;;;;1.08;0.70;;;13.40;67.70;;;;;;5070082;28;20028;-77
2020/12/01 00:53:21;;;;;;;1.08;0.65;;;13.30;67.60;;;;;;5053223;28;20033;-77
2020/12/01 00:55:51;;;;;;;0.40;0.40;;;13.30;67.70;;;;;;5054746;28;20041;-77
2020/12/01 00:58:21;;;;;;;0.80;0.73;;;13.30;67.60;;;;;;5049446;28;20114;-79
2020/12/01 01:00:59;;;;;;;1.00;0.73;;;13.30;67.60;;;;;;5068912;28;20036;-80
2020/12/01 01:03:31;;;;;;;0.60;0.60;;;13.30;67.60;;;;;;5080514;28;20127;-77
2020/12/01 01:06:01;;;;;;;1.27;1.00;;;13.30;67.70;;;;;;5052670;28;20064;-78
2020/12/01 01:08:27;;;;;;;0.90;0.73;;;13.30;67.70;;;;;;5052615;28;20481;-77
2020/12/01 01:10:53;;;;;;;0.68;0.60;;;13.30;67.70;;;;;;5043476;28;20036;-77
2020/12/01 01:13:23;;;;;;;0.80;0.68;;;13.30;67.70;;;;;;5054111;28;20024;-77
2020/12/01 01:16:04;;;;;;;0.82;0.65;;;13.30;67.70;;;;;;5068092;28;20080;-77
2020/12/01 01:18:35;;;;;;;0.50;0.50;;;13.30;67.70;;;;;;5053462;28;20113;-78
2020/12/01 01:21:05;;;;;;;1.27;0.70;;;13.30;67.70;;;;;;5054004;28;20108;-77
2020/12/01 01:23:31;;;;;;;0.40;0.40;;;13.30;67.70;;;;;;5052374;28;20090;-79
2020/12/01 01:25:59;;;;;;;1.35;0.65;;;13.30;67.70;;;;;;5047481;28;20040;-77
2020/12/01 01:28:29;;;;;;;0.55;0.55;;;13.30;67.70;;;;;;5049766;28;20027;-78
2020/12/01 01:31:34;;;;;;;1.67;0.85;;;13.30;67.70;;;;;;5056217;28;20120;-76
2020/12/01 01:34:13;;;;;;;0.60;0.50;;;13.30;67.70;;;;;;5032215;28;20515;-77
2020/12/01 01:36:39;;;;;;;1.48;0.73;;;13.30;67.70;;;;;;5010880;28;20096;-78
2020/12/01 01:39:10;;;;;;;1.00;0.68;;;13.30;67.70;;;;;;5011413;28;20042;-78
2020/12/01 01:41:37;;;;;;;0.60;0.60;;;13.30;67.70;;;;;;5011732;28;20029;-77
2020/12/01 01:44:37;;;;;;;0.70;0.60;;;13.30;67.70;;;;;;5010950;28;20054;-78
2020/12/01 01:47:31;;;;;;;0.52;0.50;;;13.30;67.70;;;;;;5018207;28;20026;-78
2020/12/01 01:50:22;;;;;;;0.43;0.43;;;13.30;67.70;;;;;;5005558;28;20156;-76
2020/12/01 01:52:49;;;;;;;0.50;0.50;;;13.30;67.70;;;;;;4993021;28;20392;-78
2020/12/01 01:55:27;;;;;;;0.50;0.50;;;13.30;67.70;;;;;;5007449;28;20018;-77
2020/12/01 01:58:02;;;;;;;1.10;0.57;;;13.30;67.70;;;;;;5022182;28;20088;-77
2020/12/01 02:00:58;;;;;;;0.50;0.50;;;13.30;67.70;;;;;;5010077;28;20547;-77
2020/12/01 02:03:38;;;;;;;0.50;0.50;;;13.30;67.70;;;;;;5013219;28;20395;-77
2020/12/01 02:06:14;;;;;;;1.10;0.77;;;13.30;67.70;;;;;;5014420;28;20060;-77
2020/12/01 02:08:48;;;;;;;0.57;0.40;;;13.30;67.70;;;;;;5010971;28;20026;-77
2020/12/01 02:11:31;;;;;;;0.60;0.57;;;13.30;67.70;;;;;;5045734;28;20036;-77
2020/12/01 02:14:30;;;;;;;0.63;0.60;;;13.30;67.70;;;;;;5052776;28;20033;-77
2020/12/01 02:16:59;;;;;;;0.73;0.70;;;13.30;67.80;;;;;;5052066;28;20094;-77
2020/12/01 02:19:28;;;;;;;0.70;0.52;;;13.30;67.70;;;;;;5067439;28;20455;-77
2020/12/01 02:21:59;;;;;;;0.65;0.65;;;13.30;67.70;;;;;;5052017;28;20083;-77
2020/12/01 02:24:31;;;;;;;0.60;0.57;;;13.30;67.80;;;;;;5052635;28;20060;-78
2020/12/01 02:27:01;;;;;;;0.80;0.73;;;13.30;67.80;;;;;;5051673;28;20116;-77
2020/12/01 02:29:44;;;;;;;0.85;0.70;;;13.30;67.80;;;;;;5051572;28;20497;-77
2020/12/01 02:32:15;;;;;;;0.68;0.68;;;13.30;67.70;;;;;;5051424;28;20486;-77
2020/12/01 02:34:45;;;;;;;0.85;0.70;;;13.30;67.70;;;;;;5052074;28;20294;-77
2020/12/01 02:37:14;;;;;;;0.63;0.63;;;13.30;67.70;;;;;;5050506;28;20028;-77
2020/12/01 02:39:40;;;;;;;0.63;0.52;;;13.30;67.70;;;;;;5051945;28;20035;-78
2020/12/01 02:42:15;;;;;;;0.60;0.60;;;13.30;67.70;;;;;;5044468;28;20029;-77
2020/12/01 02:44:46;;;;;;;0.73;0.73;;;13.30;67.70;;;;;;5034253;28;20120;-78
2020/12/01 02:47:16;;;;;;;0.82;0.70;;;13.30;67.80;;;;;;5049466;28;20029;-78
2020/12/01 02:49:43;;;;;;;0.52;0.52;;;13.30;67.80;;;;;;5050899;28;20048;-77
2020/12/01 02:52:09;;;;;;;0.55;0.50;;;13.30;67.70;;;;;;5051252;28;20032;-77
2020/12/01 02:54:36;;;;;;;0.82;0.73;;;13.30;67.80;;;;;;5051301;28;20437;-77
2020/12/01 02:57:05;;;;;;;0.85;0.57;;;13.30;67.80;;;;;;5051431;28;20025;-80
2020/12/01 02:59:30;;;;;;;;;;;13.30;67.80;;;;;;5050475;28;20059;-77
2020/12/01 03:02:00;;;;;;;0.93;0.63;;;13.30;67.80;;;;;;5050641;28;19952;-77
2020/12/01 03:04:40;;;;;;;0.63;0.50;;;13.30;67.80;;;;;;5052123;28;20612;-77
2020/12/01 03:07:10;;;;;;;0.70;0.50;;;13.30;67.70;;;;;;5050877;28;20029;-77
2020/12/01 03:09:49;;;;;;;0.63;0.57;;;13.30;67.80;;;;;;5053050;28;20036;-76
2020/12/01 03:12:38;;;;;;;0.70;0.63;;;13.30;67.80;;;;;;5054417;28;20371;-77
2020/12/01 03:15:09;;;;;;;0.70;0.65;;;13.30;67.80;;;;;;5035577;28;20036;-78
2020/12/01 03:17:54;;;;;;;0.80;0.65;;;13.30;67.70;;;;;;5050811;28;20117;-77
2020/12/01 03:20:24;;;;;;;1.13;0.60;;;13.30;67.80;;;;;;5051696;28;20021;-77
2020/12/01 03:22:52;;;;;;;0.47;0.47;;;13.30;67.80;;;;;;5060760;28;20048;-77
2020/12/01 03:25:23;;;;;;;;;;;13.30;67.80;;;;;;5044191;28;20052;-77
2020/12/01 03:27:50;;;;;;;0.85;0.68;;;13.30;67.80;;;;;;5047763;28;19908;-78
2020/12/01 03:30:17;;;;;;;0.68;0.55;;;13.30;67.80;;;;;;5051560;28;20462;-78
2020/12/01 03:32:43;;;;;;;0.55;0.50;;;13.30;67.80;;;;;;5063350;28;20083;-78
2020/12/01 03:35:13;;;;;;;0.68;0.60;;;13.30;67.80;;;;;;5055069;28;20021;-79
2020/12/01 03:37:44;;;;;;;0.93;0.77;;;13.30;67.80;;;;;;5043516;28;20067;-78
2020/12/01 03:40:23;;;;;;;0.50;0.50;;;13.30;67.80;;;;;;5052649;28;20459;-79
2020/12/01 03:43:00;;;;;;;0.50;0.50;;;13.30;67.80;;;;;;5049799;28;20037;-78
2020/12/01 03:45:53;;;;;;;0.88;0.60;;;13.30;67.80;;;;;;5052200;28;20051;-77
2020/12/01 03:48:24;;;;;;;0.77;0.68;;;13.30;67.80;;;;;;5073030;28;20397;-78
2020/12/01 03:51:03;;;;;;;0.70;0.57;;;13.30;67.70;;;;;;5066509;28;20029;-79
2020/12/01 03:53:33;;;;;;;0.40;0.40;;;13.30;67.80;;;;;;5048699;28;20378;-78
2020/12/01 03:56:03;;;;;;;0.80;0.50;;;13.30;67.80;;;;;;5050885;28;20493;-78
2020/12/01 03:58:33;;;;;;;0.60;0.60;;;13.30;67.80;;;;;;5051506;28;20071;-78
2020/12/01 04:01:04;;;;;;;0.50;0.43;;;13.30;67.80;;;;;;5069967;28;20024;-77
2020/12/01 04:03:45;;;;;;;0.50;0.50;;;13.30;67.80;;;;;;5048388;28;20021;-79
2020/12/01 04:06:19;;;;;;;0.60;0.47;;;13.30;67.80;;;;;;5050464;28;20036;-79
2020/12/01 04:08:53;;;;;;;0.73;0.50;;;13.30;67.80;;;;;;5048621;28;20037;-80
2020/12/01 04:11:24;;;;;;;0.68;0.57;;;13.30;67.80;;;;;;5054162;28;20029;-81
2020/12/01 04:14:04;;;;;;;0.60;0.50;;;13.30;67.80;;;;;;5052118;28;20035;-79
2020/12/01 04:16:40;;;;;;;0.55;0.55;;;13.30;67.80;;;;;;5051278;28;20029;-78
2020/12/01 04:19:12;;;;;;;0.73;0.68;;;13.30;67.80;;;;;;5048771;28;20025;-77
2020/12/01 04:21:42;;;;;;;0.70;0.50;;;13.30;67.80;;;;;;5051469;28;20108;-77
2020/12/01 04:24:23;;;;;;;0.90;0.60;;;13.30;67.80;;;;;;5049729;28;20026;-79
2020/12/01 04:26:53;;;;;;;0.93;0.57;;;13.30;67.80;;;;;;5047895;28;20044;-77
2020/12/01 04:29:33;;;;;;;0.55;0.55;;;13.30;67.80;;;;;;5054993;28;20021;-78
2020/12/01 04:32:08;;;;;;;0.43;0.43;;;13.30;67.80;;;;;;5049912;28;20044;-77
2020/12/01 04:34:41;;;;;;;0.50;0.50;;;13.30;67.70;;;;;;5049204;28;20040;-77
2020/12/01 04:37:12;;;;;;;0.52;0.52;;;13.30;67.80;;;;;;5057512;28;20037;-77
2020/12/01 04:39:45;;;;;;;1.00;0.70;;;13.30;67.80;;;;;;5051592;28;20032;-77
2020/12/01 04:42:17;;;;;;;0.77;0.68;;;13.30;67.80;;;;;;5049884;28;20025;-77
2020/12/01 04:45:06;;;;;;;0.65;0.57;;;13.30;67.80;;;;;;5050134;28;20055;-77
2020/12/01 04:47:48;;;;;;;0.60;0.60;;;13.30;67.80;;;;;;5044951;28;20025;-78
2020/12/01 04:50:28;;;;;;;0.55;0.55;;;13.30;67.80;;;;;;5052441;28;20025;-78
2020/12/01 04:53:31;;;;;;;0.50;0.50;;;13.30;67.80;;;;;;5049189;28;20086;-75
2020/12/01 04:56:13;;;;;;;0.90;0.70;;;13.30;67.80;;;;;;5045284;28;20029;-75
2020/12/01 04:59:13;;;;;;;0.55;0.50;;;13.30;67.80;;;;;;5048641;28;20025;-75
2020/12/01 05:02:24;;;;;;;0.93;0.60;;;13.30;67.80;;;;;;5049737;28;20072;-78
2020/12/01 05:06:09;;;;;;;0.63;0.50;;;13.30;67.80;;;;;;5036104;28;20103;-77
2020/12/01 05:09:10;;;;;;;0.80;0.60;;;13.30;67.80;;;;;;4999943;28;20034;-77
2020/12/01 05:12:38;;;;;;;;;;;;;;;;;;;;;
2020/12/01 05:14:57;;;;;;;;;;;13.30;67.80;;;;;;4999158;28;20027;-77
2020/12/01 05:17:50;;;;;;;0.43;0.43;;;13.30;67.80;;;;;;5004497;28;19921;-77
2020/12/01 05:20:18;;;;;;;0.70;0.50;;;13.30;67.80;;;;;;5011663;28;20109;-77
2020/12/01 05:23:06;;;;;;;0.98;0.65;;;13.30;67.80;;;;;;5011920;28;20066;-81
2020/12/01 05:25:38;;;;;;;0.75;0.63;;;13.30;67.80;;;;;;4995459;28;20034;-77
2020/12/01 05:28:19;;;;;;;0.82;0.60;;;13.30;67.80;;;;;;4988814;28;20116;-76
2020/12/01 05:31:05;;;;;;;0.68;0.55;;;13.30;67.80;;;;;;5005656;28;20130;-77
2020/12/01 05:33:36;;;;;;;0.50;0.50;;;13.30;67.80;;;;;;4996961;28;20045;-77
2020/12/01 05:36:20;;;;;;;1.17;0.60;;;13.30;67.80;;;;;;5001088;28;20121;-77
2020/12/01 05:39:03;;;;;;;1.27;0.80;;;13.30;67.80;;;;;;5007331;28;20457;-77
2020/12/01 05:41:33;;;;;;;1.10;0.70;;;13.30;67.80;;;;;;5003450;28;20025;-77
2020/12/01 05:44:21;;;;;;;0.75;0.68;;;13.30;67.80;;;;;;5034930;28;20059;-78
2020/12/01 05:47:09;;;;;;;1.02;0.60;;;13.30;67.80;;;;;;5067732;28;20025;-77
2020/12/01 05:49:39;;;;;;;0.30;0.30;;;13.30;67.80;;;;;;5044490;28;20481;-77
2020/12/01 05:52:45;;;;;;;1.10;0.75;;;13.30;67.80;;;;;;5049687;28;20024;-77
2020/12/01 05:55:25;;;;;;;0.50;0.50;;;13.30;67.80;;;;;;5048070;28;20384;-77
2020/12/01 05:58:17;;;;;;;0.70;0.60;;;13.30;67.80;;;;;;5065634;28;20033;-77
2020/12/01 06:00:57;;;;;;;0.90;0.50;;;13.30;67.80;;;;;;5045605;28;20379;-77
2020/12/01 06:03:59;;;;;;;0.80;0.80;;;13.30;67.80;;;;;;5053734;28;20044;-77
2020/12/01 06:06:51;;;;;;;0.73;0.60;;;13.30;67.80;;;;;;5043583;28;20391;-77
2020/12/01 06:09:49;;;;;;;0.93;0.68;;;13.30;67.80;;;;;;5043183;28;20553;-77
2020/12/01 06:12:33;;;;;;;1.02;0.63;;;13.30;67.80;;;;;;5044329;28;20037;-78
2020/12/01 06:15:20;;;;;;;0.60;0.50;;;13.30;67.80;;;;;;5052847;28;20413;-77
2020/12/01 06:18:05;;;;;;;1.33;0.98;;;13.30;67.80;;;;;;5045605;28;20033;-77
2020/12/01 06:20:39;;;;;;;0.88;0.70;;;13.30;67.70;;;;;;5044898;28;20020;-77
2020/12/01 06:23:36;;;;;;;0.80;0.50;;;13.30;67.80;;;;;;5044251;28;20112;-76
2020/12/01 06:26:26;;;;;;;0.93;0.70;;;13.30;67.70;;;;;;5040200;28;20041;-77
2020/12/01 06:29:05;;;;;;;0.57;0.50;;;13.30;67.80;;;;;;5053441;28;20056;-77
2020/12/01 06:31:59;;;;;;;0.68;0.60;;;13.30;67.80;;;;;;5048862;28;20112;-77
2020/12/01 06:35:07;;;;;;;1.02;0.60;;;13.30;67.70;;;;;;5047050;28;20029;-79
2020/12/01 06:38:10;;;;;;;0.50;0.50;;;13.30;67.80;;;;;;5045683;28;20055;-77
2020/12/01 06:40:50;;;;;;;0.65;0.65;;;13.30;67.70;;;;;;5048796;28;20033;-77
2020/12/01 06:43:27;;;;;;;1.00;0.80;;;13.30;67.70;;;;;;5049865;28;20132;-78
2020/12/01 06:46:43;;;;;;;0.85;0.80;;;13.30;67.70;;;;;;5049434;28;20033;-77
2020/12/01 06:49:27;;;;;;;0.60;0.60;;;13.30;67.80;;;;;;5047677;28;20074;-77
2020/12/01 06:52:10;;;;;;;0.50;0.47;;;13.30;67.70;;;;;;5052461;28;20025;-77
2020/12/01 06:54:47;;;;;;;0.95;0.60;;;13.30;67.70;;;;;;5062906;28;20033;-77
2020/12/01 06:57:28;;;;;;;0.52;0.40;;;13.30;67.70;;;;;;5040725;28;20497;-77
2020/12/01 06:59:56;;;;;;;0.52;0.52;;;13.30;67.70;;;;;;5051269;28;20087;-78
2020/12/01 07:02:25;;;;;;;0.50;0.50;;;13.30;67.70;;;;;;5047561;28;20025;-78
2020/12/01 07:05:08;;;;;;;0.50;0.50;;;13.30;67.70;;;;;;5051612;28;20063;-77
2020/12/01 07:07:39;;;;;;;0.50;0.50;;;13.30;67.70;;;;;;5051095;28;20029;-79
2020/12/01 07:10:41;;;;;;;0.55;0.55;;;13.30;67.70;;;;;;5050080;28;20474;-78
2020/12/01 07:13:24;;;;;;;0.60;0.55;;;13.30;67.70;;;;;;5055201;28;20045;-80
2020/12/01 07:16:17;;;;;;;1.42;0.90;;;13.30;67.70;;;;;;5066087;28;20029;-80
2020/12/01 07:18:52;;;;;;;0.55;0.55;;;13.30;67.70;;;;;;5046684;28;20033;-80
2020/12/01 07:21:30;;;;;;;0.73;0.60;;;13.30;67.60;;;;;;5046216;28;20032;-79
2020/12/01 07:24:34;;;;;;;0.90;0.70;;;13.30;67.70;;;;;;5053165;28;20030;-79
2020/12/01 07:27:18;;;;;;;0.50;0.50;;;13.30;67.60;;;;;;5037675;28;20041;-79
2020/12/01 07:30:12;;;;;;;0.63;0.50;;;13.30;67.60;;;;;;5047916;28;20094;-80
2020/12/01 07:33:05;;;;;;;1.33;0.70;;;13.30;67.60;;;;;;5056958;28;20030;-79
2020/12/01 07:35:55;;;;;;;0.60;0.50;;;13.30;67.50;;;;;;5050355;28;20036;-80
2020/12/01 07:38:43;;;;;;;0.90;0.82;;;13.30;67.60;;;;;;5052328;28;20489;-79
2020/12/01 07:41:35;;;;;;;;;;;13.30;67.60;;;;;;5048451;28;20470;-81
2020/12/01 07:44:43;;;;;;;0.50;0.50;;;13.30;67.60;;;;;;5039180;28;19927;-79
2020/12/01 07:47:21;;;;;;;0.40;0.40;;;13.30;67.60;;;;;;5051702;28;20079;-79
2020/12/01 07:50:20;;;;;;;0.43;0.43;;;13.30;67.60;;;;;;5047268;28;20034;-80
2020/12/01 07:53:12;;;;;;;0.30;0.30;;;13.30;67.60;;;;;;5039626;28;20118;-79
2020/12/01 07:56:00;;;;;;;0.55;0.55;;;13.30;67.50;;;;;;5042233;28;20442;-79
2020/12/01 07:58:30;;;;;;;0.65;0.55;;;13.30;67.50;;;;;;5059511;28;20049;-80
2020/12/01 08:00:59;;;;;;;0.77;0.60;;;13.30;67.50;;;;;;5044575;28;20040;-79
2020/12/01 08:03:42;;;;;;;0.43;0.43;;;13.30;67.50;;;;;;5049985;28;20039;-83
2020/12/01 08:06:13;;;;;;;0.60;0.60;;;13.30;67.50;;;;;;5045664;28;20408;-78
2020/12/01 08:08:44;;;;;;;0.50;0.50;;;13.30;67.50;;;;;;5051741;28;20029;-79
2020/12/01 08:11:17;;;;;;;0.98;0.75;;;13.30;67.40;;;;;;5051789;28;20029;-79
2020/12/01 08:13:54;;;;;;;0.50;0.47;;;13.30;67.40;;;;;;5051140;28;20083;-79
2020/12/01 08:16:33;;;;;;;0.70;0.70;;;13.30;67.40;;;;;;5049853;28;20032;-79
2020/12/01 08:19:05;;;;;;;0.63;0.50;;;13.30;67.40;;;;;;5065161;28;20029;-79
2020/12/01 08:21:40;;;;;;;0.60;0.60;;;13.40;67.40;;;;;;5052562;28;20129;-79
2020/12/01 08:24:13;;;;;;;0.90;0.65;;;13.30;67.40;;;;;;5040767;28;20064;-79
2020/12/01 08:26:40;;;;;;;0.43;0.40;;;13.40;67.30;;;;;;5052224;28;20032;-82
2020/12/01 08:29:12;;;;;;;0.55;0.50;;;13.40;67.30;;;;;;5053988;28;20029;-80
2020/12/01 08:32:04;;;;;;;1.00;0.77;;;13.30;67.40;;;;;;5045291;28;20036;-79
2020/12/01 08:34:46;;;;;;;0.75;0.60;;;13.40;67.40;;;;;;5046795;28;20033;-78
2020/12/01 08:37:42;;;;;;;0.60;0.55;;;13.30;67.30;;;;;;5043870;28;20152;-79
2020/12/01 08:40:22;;;;;;;0.90;0.90;;;13.40;67.30;;;;;;5047525;28;20029;-78
2020/12/01 08:43:02;;;;;;;0.60;0.60;;;13.40;67.20;;;;;;5041306;28;20128;-78
2020/12/01 08:45:53;;;;;;;0.77;0.60;;;13.40;67.20;;;;;;5059802;28;20056;-77
2020/12/01 08:48:48;;;;;;;0.47;0.47;;;13.40;67.20;;;;;;5067441;28;20113;-77
2020/12/01 08:51:32;;;;;;;0.82;0.63;;;13.40;67.20;;;;;;5053633;28;20037;-78
2020/12/01 08:54:04;;;;;;;0.70;0.60;;;13.40;67.20;;;;;;5049039;28;20071;-79
2020/12/01 08:56:47;;;;;;;0.55;0.40;;;13.40;67.10;;;;;;5059388;28;20052;-79
2020/12/01 08:59:57;;;;;;;0.73;0.73;;;13.40;67.10;;;;;;5053485;28;20084;-79
2020/12/01 09:02:23;;;;;;;0.50;0.50;;;13.50;67.10;;;;;;5045490;28;20029;-79
2020/12/01 09:05:01;;;;;;;0.77;0.65;;;13.50;67.10;;;;;;5048718;28;20375;-79
2020/12/01 09:07:41;;;;;;;0.73;0.70;;;13.50;67.00;;;;;;5040603;28;20497;-79
2020/12/01 09:10:32;;;;;;;0.60;0.60;;;13.40;67.00;;;;;;5042499;28;20029;-79
2020/12/01 09:13:14;;;;;;;0.73;0.55;;;13.50;67.00;;;;;;5047008;28;20119;-78
2020/12/01 09:16:21;;;;;;;1.20;0.80;;;13.50;67.00;;;;;;5046265;28;20029;-80
2020/12/01 09:21:58;;;;;;;0.77;0.60;;;13.50;67.00;;;;;;5049067;28;20032;-78
2020/12/01 09:24:27;;;;;;;0.40;0.40;;;13.50;66.90;;;;;;5051371;28;20112;-78
2020/12/01 09:27:12;;;;;;;0.50;0.50;;;13.50;66.90;;;;;;5066857;28;20036;-78
2020/12/01 09:29:48;;;;;;;0.68;0.52;;;13.50;66.90;;;;;;5046983;28;20044;-78
2020/12/01 09:32:25;;;;;;;0.77;0.52;;;13.50;67.00;;;;;;5051566;28;20021;-78
2020/12/01 09:34:56;;;;;;;0.60;0.52;;;13.50;67.00;;;;;;5062314;28;20037;-77
2020/12/01 09:37:24;;;;;;;0.70;0.70;;;13.50;66.90;;;;;;5050480;28;20449;-80
2020/12/01 09:39:55;;;;;;;0.70;0.50;;;13.50;66.90;;;;;;5049103;28;20061;-80
2020/12/01 09:47:33;;;;;;;0.90;0.60;;;13.50;66.80;;;;;;5052057;28;20277;-80
2020/12/01 09:50:07;;;;;;;0.52;0.52;;;13.50;66.80;;;;;;5049761;28;20057;-78
2020/12/01 09:55:43;;;;;;;0.75;0.70;;;13.50;66.80;;;;;;5050650;28;20040;-80
2020/12/01 10:09:25;;;;;;;0.50;0.50;;;13.60;66.70;;;;;;5049554;28;20063;-79
2020/12/01 10:36:52;;;;;;;0.63;0.63;;;13.60;66.60;;;;;;5044420;28;20032;-79
2020/12/01 10:39:30;;;;;;;0.50;0.43;;;13.60;66.60;;;;;;5069878;28;20378;-80
2020/12/01 10:42:25;;;;;;;0.50;0.50;;;13.60;66.50;;;;;;5053834;28;20037;-78
2020/12/01 10:44:57;;;;;;;0.77;0.77;;;13.60;66.50;;;;;;5061360;28;20045;-79
2020/12/01 10:47:38;;;;;;;0.65;0.50;;;13.60;66.50;;;;;;5050821;28;20122;-78
2020/12/01 10:50:35;;;;;;;0.52;0.50;;;13.70;66.50;;;;;;5045358;28;20025;-79
2020/12/01 10:53:05;;;;;;;0.40;0.40;;;13.70;66.40;;;;;;5039605;28;20071;-78
2020/12/01 10:55:32;;;;;;;0.70;0.60;;;13.70;66.40;;;;;;5048745;28;20108;-79
2020/12/01 10:57:58;;;;;;;0.60;0.50;;;13.70;66.40;;;;;;5055063;28;20029;-78
2020/12/01 11:00:37;;;;;;;0.57;0.52;;;13.70;66.40;;;;;;5048488;28;20021;-79
2020/12/01 11:03:09;;;;;;;0.40;0.40;;;13.70;66.40;;;;;;5050985;28;20047;-78
2020/12/01 11:05:39;;;;;;;0.70;0.40;;;13.70;66.40;;;;;;5032979;28;20032;-78
2020/12/01 11:08:13;;;;;;;0.40;0.40;;;13.70;66.40;;;;;;5044261;28;20096;-80
2020/12/01 11:10:56;;;;;;;0.47;0.47;;;13.70;66.30;;;;;;5039903;28;20021;-80
2020/12/01 11:13:27;;;;;;;0.65;0.40;;;13.70;66.30;;;;;;5046038;28;20482;-80
2020/12/01 11:15:58;;;;;;;0.68;0.60;;;13.70;66.30;;;;;;5046206;28;20304;-77
2020/12/01 11:18:29;;;;;;;0.60;0.60;;;13.70;66.40;;;;;;5062736;28;20455;-77
2020/12/01 11:21:00;;;;;;;0.65;0.65;;;13.70;66.30;;;;;;5052132;28;20447;-78
2020/12/01 11:23:47;;;;;;;0.73;0.57;;;13.70;66.30;;;;;;5052192;28;20078;-77
2020/12/01 11:26:42;;;;;;;0.57;0.57;;;13.70;66.30;;;;;;5062571;28;20037;-77
2020/12/01 11:29:12;;;;;;;0.40;0.40;;;13.70;66.30;;;;;;5058548;28;20508;-77
2020/12/01 11:31:50;;;;;;;0.63;0.50;;;13.70;66.30;;;;;;5067003;28;20025;-77
2020/12/01 11:34:21;;;;;;;0.40;0.40;;;13.70;66.30;;;;;;5068785;28;20025;-77
2020/12/01 11:36:49;;;;;;;0.50;0.50;;;13.70;66.40;;;;;;5052102;28;20368;-78
2020/12/01 11:39:33;;;;;;;0.52;0.43;;;13.70;66.30;;;;;;5054232;28;20060;-78
2020/12/01 11:42:24;;;;;;;0.82;0.60;;;13.70;66.30;;;;;;5052235;28;20087;-78
2020/12/01 11:44:54;;;;;;;0.77;0.70;;;13.70;66.30;;;;;;5063862;28;20367;-78
2020/12/01 11:47:34;;;;;;;;;;;;;;;;;;;;;
2020/12/01 11:50:08;;;;;;;0.70;0.60;;;13.70;66.20;;;;;;5051127;28;20382;-78
2020/12/01 11:52:48;;;;;;;0.65;0.63;;;13.70;66.10;;;;;;5049844;28;20029;-78
2020/12/01 11:55:27;;;;;;;0.50;0.50;;;13.80;66.10;;;;;;5066824;28;20222;-78
2020/12/01 11:58:08;;;;;;;0.95;0.77;;;13.80;66.00;;;;;;5037953;28;20068;-78
2020/12/01 12:00:46;;;;;;;0.40;0.40;;;13.80;66.00;;;;;;5063393;28;20544;-78
2020/12/01 12:03:25;;;;;;;0.50;0.50;;;13.80;66.00;;;;;;5051915;28;20119;-78
2020/12/01 12:06:04;;;;;;;0.55;0.50;;;13.80;66.00;;;;;;5042502;28;20069;-78
2020/12/01 12:08:34;;;;;;;0.70;0.65;;;13.80;66.00;;;;;;5045726;28;20025;-78
2020/12/01 12:11:03;;;;;;;1.13;0.70;;;13.80;66.00;;;;;;5048165;28;20064;-78
2020/12/01 12:13:46;;;;;;;0.65;0.50;;;13.70;66.10;;;;;;5063757;28;20029;-78
2020/12/01 12:16:22;;;;;;;0.60;0.60;;;13.80;66.10;;;;;;5044482;28;20107;-78
2020/12/01 12:18:59;;;;;;;0.45;0.45;;;13.80;66.10;;;;;;5050566;28;20060;-83
2020/12/01 12:21:35;;;;;;;0.65;0.60;;;13.80;66.10;;;;;;5053840;28;20053;-78
2020/12/01 12:24:21;;;;;;;0.50;0.47;;;13.80;66.10;;;;;;5058327;28;20040;-78
2020/12/01 12:26:56;;;;;;;0.50;0.50;;;13.70;66.20;;;;;;5054916;28;20428;-78
2020/12/01 12:29:34;;;;;;;0.30;0.30;;;13.70;66.20;;;;;;5055285;28;20029;-78
2020/12/01 12:32:12;;;;;;;0.70;0.70;;;13.70;66.20;;;;;;5054774;28;20423;-78
2020/12/01 12:34:42;;;;;;;0.40;0.40;;;13.70;66.30;;;;;;5067858;28;20040;-77
2020/12/01 12:37:13;;;;;;;0.80;0.65;;;13.70;66.30;;;;;;5048718;28;20026;-79
2020/12/01 12:39:44;;;;;;;0.40;0.40;;;13.70;66.40;;;;;;5069667;28;20024;-78
2020/12/01 12:42:17;;;;;;;0.52;0.50;;;13.70;66.40;;;;;;5048223;28;20021;-78
2020/12/01 12:44:51;;;;;;;0.75;0.55;;;13.70;66.30;;;;;;5071815;28;20044;-78
2020/12/01 12:47:54;;;;;;;0.82;0.55;;;13.60;66.40;;;;;;5052202;28;20037;-78
2020/12/01 12:50:31;;;;;;;0.85;0.50;;;13.70;66.40;;;;;;5055170;28;20036;-78
2020/12/01 12:52:57;;;;;;;0.63;0.50;;;13.70;66.40;;;;;;5051727;28;20033;-79
2020/12/01 12:55:41;;;;;;;0.45;0.40;;;13.60;66.50;;;;;;5053112;28;20036;-78
2020/12/01 12:58:12;;;;;;;0.40;0.40;;;13.60;66.50;;;;;;5045918;28;20513;-78
2020/12/01 13:00:45;;;;;;;0.82;0.60;;;13.60;66.40;;;;;;5055730;28;20037;-78
2020/12/01 13:03:24;;;;;;;0.60;0.60;;;13.60;66.50;;;;;;5054723;28;20033;-78
2020/12/01 13:05:58;;;;;;;0.47;0.47;;;13.60;66.40;;;;;;5053582;28;20036;-79
2020/12/01 13:08:34;;;;;;;0.45;0.45;;;13.60;66.50;;;;;;5045830;28;20029;-78
2020/12/01 13:11:13;;;;;;;0.75;0.40;;;13.70;66.40;;;;;;5053074;28;20382;-78
2020/12/01 13:13:45;;;;;;;0.40;0.40;;;13.60;66.50;;;;;;5053374;28;20025;-77
2020/12/01 13:16:23;;;;;;;0.40;0.40;;;13.60;66.50;;;;;;5057103;28;20021;-78
2020/12/01 13:19:03;;;;;;;0.60;0.60;;;13.60;66.50;;;;;;5053805;28;20060;-77
2020/12/01 13:21:44;;;;;;;0.68;0.50;;;13.70;66.50;;;;;;5046954;28;20548;-77
2020/12/01 13:24:16;;;;;;;0.60;0.60;;;13.60;66.50;;;;;;5067514;28;20037;-76
2020/12/01 13:26:41;;;;;;;0.43;0.40;;;13.60;66.50;;;;;;5049713;28;20045;-77
2020/12/01 13:29:12;;;;;;;0.98;0.65;;;13.60;66.50;;;;;;5048444;28;20090;-77
2020/12/01 13:31:55;;;;;;;0.50;0.50;;;13.70;66.50;;;;;;5062397;28;20020;-77
2020/12/01 13:34:44;;;;;;;0.32;0.32;;;13.60;66.40;;;;;;5053221;28;20026;-77
2020/12/01 13:37:15;;;;;;;0.50;0.40;;;13.70;66.50;;;;;;5035900;28;20128;-77
2020/12/01 13:39:59;;;;;;;0.50;0.50;;;13.60;66.50;;;;;;5051445;28;20075;-77
2020/12/01 13:42:28;;;;;;;0.32;0.32;;;13.70;66.50;;;;;;5049644;28;20017;-77
2020/12/01 13:44:59;;;;;;;0.40;0.40;;;13.60;66.50;;;;;;5070716;28;20445;-78
2020/12/01 13:47:32;;;;;;;0.68;0.50;;;13.70;66.50;;;;;;5053289;28;20467;-79
2020/12/01 13:50:10;;;;;;;0.60;0.60;;;13.60;66.50;;;;;;5056280;28;20092;-79
2020/12/01 13:52:58;;;;;;;0.45;0.40;;;13.60;66.60;;;;;;5052643;28;20031;-79
2020/12/01 13:55:31;;;;;;;0.60;0.50;;;13.60;66.60;;;;;;5051933;28;20120;-79
2020/12/01 13:58:13;;;;;;;0.40;0.40;;;13.60;66.60;;;;;;5068995;28;20343;-79
2020/12/01 14:00:44;;;;;;;0.57;0.45;;;13.60;66.60;;;;;;5047081;28;20029;-80
2020/12/01 14:03:24;;;;;;;0.28;0.22;;;13.60;66.60;;;;;;5052766;28;20037;-80
2020/12/01 14:06:02;;;;;;;0.55;0.55;;;13.60;66.60;;;;;;5045998;28;20462;-79
2020/12/01 14:08:43;;;;;;;0.40;0.30;;;13.60;66.60;;;;;;5067429;28;20036;-79
2020/12/01 14:11:21;;;;;;;0.63;0.55;;;13.60;66.60;;;;;;5043576;28;20033;-79
2020/12/01 14:14:21;;;;;;;1.25;0.40;;;13.60;66.60;;;;;;5050932;28;20041;-78
2020/12/01 14:16:50;;;;;;;0.57;0.40;;;13.60;66.60;;;;;;5048582;28;20025;-78
2020/12/01 14:19:24;;;;;;;0.45;0.45;;;13.60;66.60;;;;;;5052530;28;20104;-79
2020/12/01 14:21:52;;;;;;;0.63;0.60;;;13.60;66.60;;;;;;5068762;28;20041;-79
2020/12/01 14:24:32;;;;;;;0.50;0.50;;;13.60;66.70;;;;;;5051971;28;20382;-79
2020/12/01 14:27:02;;;;;;;0.50;0.40;;;13.60;66.60;;;;;;5051794;28;20028;-81
2020/12/01 14:29:41;;;;;;;0.68;0.50;;;13.60;66.60;;;;;;5065468;28;20025;-79
2020/12/01 14:32:09;;;;;;;0.73;0.43;;;13.60;66.70;;;;;;5054638;28;20025;-79
2020/12/01 14:34:40;;;;;;;;;;;13.60;66.70;;;;;;5036231;28;20040;-79
2020/12/01 14:37:16;;;;;;;0.47;0.47;;;13.60;66.70;;;;;;5041775;28;19912;-78